Time;durP1;ratioP1;P1;durP2;ratioP2;P2;SDS_P1;SDS_P2;PMS_P1;PMS_P2;Temp;Humidity;BMP_temperature;BMP_pressure;BME280_temperature;BME280_humidity;BME280_pressure;Samples;Min_cycle;Max_cycle;Signal;HPM_P1;HPM_P2
2021/10/21 00:00:06;;;;;;;8.70;5.70;;;;;;;15.24;80.86;98089.56;5065224;28;20543;-77
2021/10/21 00:02:34;;;;;;;7.97;6.33;;;;;;;15.33;79.91;98073.06;5078503;28;20493;-81
2021/10/21 00:05:00;;;;;;;10.97;6.83;;;;;;;15.49;79.98;98075.19;5068726;28;20452;-81
2021/10/21 00:07:27;;;;;;;7.80;6.10;;;;;;;15.48;79.40;98062.75;5064027;28;21095;-80
2021/10/21 00:09:54;;;;;;;8.83;6.10;;;;;;;15.58;78.46;98043.38;5065844;28;20535;-81
2021/10/21 00:12:20;;;;;;;8.03;5.63;;;;;;;15.51;79.17;98032.69;5070419;28;20559;-80
2021/10/21 00:14:47;;;;;;;6.30;5.27;;;;;;;15.69;78.03;98017.53;5076143;28;20545;-80
2021/10/21 00:19:50;;;;;;;6.80;5.63;;;;;;;15.75;76.98;97989.72;4838699;23;20702;-76
2021/10/21 00:22:18;;;;;;;6.63;4.20;;;;;;;15.91;76.53;97969.38;5064620;28;20778;-76
2021/10/21 00:24:45;;;;;;;6.20;5.30;;;;;;;15.89;77.07;97955.31;5066207;28;20463;-76
2021/10/21 00:27:11;;;;;;;7.50;4.60;;;;;;;15.86;76.75;97948.50;5070732;28;20504;-75
2021/10/21 00:29:38;;;;;;;7.73;4.70;;;;;;;15.92;76.74;97930.56;5065754;28;20479;-75
2021/10/21 00:32:05;;;;;;;6.80;4.60;;;;;;;15.78;76.61;97921.91;5070553;28;20528;-75
2021/10/21 00:34:32;;;;;;;7.60;4.73;;;;;;;15.86;76.39;97910.78;5079063;28;20527;-75
2021/10/21 00:37:00;;;;;;;5.20;4.20;;;;;;;15.88;75.63;97892.50;5064095;28;20505;-75
2021/10/21 00:39:26;;;;;;;8.90;4.43;;;;;;;15.84;75.93;97864.38;5073818;28;20450;-75
2021/10/21 00:41:53;;;;;;;5.17;4.20;;;;;;;15.86;76.16;97864.97;5083983;28;20551;-75
2021/10/21 00:44:21;;;;;;;6.03;4.10;;;;;;;16.04;75.31;97857.81;5068787;28;20972;-75
2021/10/21 00:46:48;;;;;;;4.23;3.93;;;;;;;16.03;74.58;97840.84;5210682;22;20516;-74
2021/10/21 00:49:15;;;;;;;6.00;4.50;;;;;;;15.92;75.26;97833.56;5044619;28;20465;-74
2021/10/21 00:51:42;;;;;;;7.53;3.90;;;;;;;16.01;74.80;97824.09;5047028;28;20507;-74
2021/10/21 00:54:11;;;;;;;4.53;3.60;;;;;;;16.09;73.62;97810.25;5296601;22;20508;-76
2021/10/21 00:56:37;;;;;;;6.07;3.20;;;;;;;16.12;73.61;97796.28;5056540;28;20504;-75
2021/10/21 00:59:05;;;;;;;5.80;3.60;;;;;;;16.14;73.01;97787.97;5062258;28;20548;-76
2021/10/21 01:04:14;;;;;;;5.30;3.63;;;;;;;16.29;72.58;97777.50;4010026;22;21251;-79
2021/10/21 01:06:42;;;;;;;8.53;3.90;;;;;;;16.16;73.12;97767.81;5066554;28;20559;-80
2021/10/21 01:09:10;;;;;;;5.80;3.50;;;;;;;16.29;72.66;97757.84;5077953;28;20456;-80
2021/10/21 01:11:37;;;;;;;4.93;3.60;;;;;;;16.27;72.12;97759.94;5073317;28;20513;-83
2021/10/21 01:14:05;;;;;;;3.80;3.07;;;;;;;16.47;71.62;97741.44;5286242;22;20535;-79
2021/10/21 01:18:59;;;;;;;4.00;3.20;;;;;;;16.45;71.77;97735.50;5058253;28;20477;-76
2021/10/21 01:21:29;;;;;;;4.40;2.90;;;;;;;16.51;71.86;97739.94;5058691;28;20560;-78
2021/10/21 01:23:56;;;;;;;3.70;2.87;;;;;;;16.65;70.71;97736.97;5063548;28;20437;-77
2021/10/21 01:26:22;;;;;;;5.93;3.27;;;;;;;16.71;70.75;97736.78;5062753;28;20494;-80
2021/10/21 01:28:49;;;;;;;5.60;2.77;;;;;;;16.60;70.99;97734.16;5195931;22;20575;-81
2021/10/21 01:31:15;;;;;;;4.43;3.10;;;;;;;16.43;72.29;97734.91;5059273;28;20477;-81
2021/10/21 01:33:42;;;;;;;4.77;2.90;;;;;;;16.25;74.13;97741.31;5158430;22;20497;-82
2021/10/21 01:36:12;;;;;;;5.27;3.60;;;;;;;16.17;75.94;97734.41;5035897;28;20470;-79
2021/10/21 01:38:40;;;;;;;4.57;3.40;;;;;;;15.79;77.47;97743.84;5023558;28;20458;-78
2021/10/21 01:41:06;;;;;;;4.07;3.67;;;;;;;15.67;78.29;97750.28;5043023;28;20530;-81
2021/10/21 01:43:33;;;;;;;6.80;3.70;;;;;;;15.42;79.83;97765.59;5032062;28;20486;-81
2021/10/21 01:46:00;;;;;;;4.80;4.10;;;;;;;15.30;81.54;97762.09;5028490;28;20554;-81
2021/10/21 01:48:26;;;;;;;4.30;3.70;;;;;;;15.15;82.05;97684.47;5040706;28;20465;-81
2021/10/21 01:50:53;;;;;;;6.23;4.30;;;;;;;15.19;82.80;97682.13;5138642;22;20560;-81
2021/10/21 01:53:20;;;;;;;6.10;2.63;;;;;;;15.09;80.34;97663.09;5222058;23;20494;-82
2021/10/21 01:55:48;;;;;;;3.47;2.53;;;;;;;14.99;80.68;97648.31;5024840;28;20490;-82
2021/10/21 01:58:14;;;;;;;3.60;2.93;;;;;;;15.09;80.83;97628.09;5038471;28;20904;-83
2021/10/21 02:00:41;;;;;;;3.30;2.20;;;;;;;15.13;81.23;97632.75;5045715;28;21098;-82
2021/10/21 02:03:08;;;;;;;5.50;3.50;;;;;;;14.94;82.35;97623.16;5038874;28;20473;-82
2021/10/21 02:05:34;;;;;;;4.90;2.67;;;;;;;15.11;82.30;97617.91;5044413;28;20496;-83
2021/10/21 02:08:01;;;;;;;3.73;3.03;;;;;;;15.24;82.06;97577.28;5042222;28;20517;-82
2021/10/21 02:10:28;;;;;;;4.47;3.70;;;;;;;15.10;83.07;97559.75;5054007;28;20497;-82
2021/10/21 02:12:56;;;;;;;6.73;3.80;;;;;;;14.96;83.79;97535.78;5054840;28;20542;-83
2021/10/21 02:15:23;;;;;;;3.60;3.30;;;;;;;15.05;83.79;97533.53;5035412;28;20550;-82
2021/10/21 02:17:49;;;;;;;5.90;4.27;;;;;;;15.04;83.85;97540.00;5042522;28;20515;-82
2021/10/21 02:22:51;;;;;;;5.23;4.37;;;;;;;15.01;84.13;97530.50;3845819;23;20523;-82
2021/10/21 02:25:19;;;;;;;8.73;4.13;;;;;;;15.02;83.77;97531.34;5045049;28;20441;-80
2021/10/21 02:27:46;;;;;;;6.10;4.50;;;;;;;15.16;83.56;97529.22;5045136;28;20997;-81
2021/10/21 02:30:15;;;;;;;6.40;4.73;;;;;;;15.21;83.17;97518.56;5046423;28;20492;-81
2021/10/21 02:32:42;;;;;;;6.00;4.37;;;;;;;15.03;83.74;97512.28;5074499;28;20471;-81
2021/10/21 02:35:10;;;;;;;4.87;4.47;;;;;;;15.10;83.05;97500.56;5084315;28;20459;-81
2021/10/21 02:37:37;;;;;;;9.30;5.13;;;;;;;15.24;83.17;97489.31;5102805;28;20530;-81
2021/10/21 02:40:06;;;;;;;5.17;4.67;;;;;;;15.16;82.88;97494.25;5100572;28;20491;-79
2021/10/21 02:42:33;;;;;;;4.90;4.40;;;;;;;15.22;82.87;97496.81;5122478;23;20516;-80
2021/10/21 02:45:07;;;;;;;5.27;4.07;;;;;;;15.02;82.14;97485.63;5058291;28;20772;-81
2021/10/21 02:47:35;;;;;;;4.30;3.90;;;;;;;15.06;81.78;97502.91;5178338;22;20588;-80
2021/10/21 02:50:02;;;;;;;4.37;3.40;;;;;;;15.22;81.23;97479.81;5061692;28;20831;-81
2021/10/21 02:52:29;;;;;;;4.53;3.73;;;;;;;15.05;81.55;97474.34;5028565;28;20501;-81
2021/10/21 02:54:55;;;;;;;5.83;2.73;;;;;;;14.95;81.08;97477.66;5172249;23;20534;-82
2021/10/21 02:57:22;;;;;;;3.00;2.63;;;;;;;14.91;80.73;97468.41;5057555;28;20486;-82
2021/10/21 03:05:00;;;;;;;3.20;2.00;;;;;;;14.92;79.69;97475.44;4232694;26;21116;-84
2021/10/21 03:07:27;;;;;;;3.80;2.10;;;;;;;15.02;78.99;97464.09;5062080;28;20544;-84
2021/10/21 03:09:53;;;;;;;2.40;2.20;;;;;;;14.80;79.77;97478.16;5060159;28;20440;-84
2021/10/21 03:12:20;;;;;;;2.80;2.20;;;;;;;14.95;78.94;97484.94;5073562;28;20512;-84
2021/10/21 03:14:47;;;;;;;1.97;1.70;;;;;;;14.86;76.61;97473.72;5050681;28;20704;-83
2021/10/21 03:17:14;;;;;;;1.90;1.70;;;;;;;14.93;77.11;97482.47;5056882;28;21067;-83
2021/10/21 03:19:41;;;;;;;2.10;1.90;;;;;;;14.81;76.50;97485.16;5065459;28;20456;-84
2021/10/21 03:22:09;;;;;;;2.43;1.93;;;;;;;14.95;74.15;97485.75;5066055;28;20482;-84
2021/10/21 03:24:35;;;;;;;1.40;1.30;;;;;;;14.70;71.70;97472.53;5324439;23;20535;-81
2021/10/21 03:27:02;;;;;;;1.90;1.10;;;;;;;14.52;72.37;97486.91;5275888;22;20563;-83
2021/10/21 03:29:29;;;;;;;4.73;1.37;;;;;;;13.89;73.13;97491.84;5059376;28;20483;-81
2021/10/21 03:31:55;;;;;;;1.27;1.17;;;;;;;13.87;74.20;97483.22;5054093;28;20577;-81
2021/10/21 03:34:22;;;;;;;9.00;1.53;;;;;;;13.43;77.06;97505.94;5046724;28;20500;-75
2021/10/21 03:36:49;;;;;;;3.03;1.30;;;;;;;13.24;78.74;97529.25;5381545;22;20544;-75
2021/10/21 03:39:17;;;;;;;2.90;1.30;;;;;;;12.92;78.81;97519.50;5069725;28;20463;-75
2021/10/21 03:41:44;;;;;;;2.30;1.43;;;;;;;12.96;79.57;97517.19;5080683;28;20476;-75
2021/10/21 03:44:10;;;;;;;2.73;1.20;;;;;;;12.95;77.21;97529.78;5247810;23;20611;-75
2021/10/21 03:52:01;;;;;;;5.00;1.20;;;;;;;13.05;76.42;97564.13;4320477;22;20535;-75
2021/10/21 03:54:29;;;;;;;2.50;1.57;;;;;;;12.98;75.14;97561.53;5071343;28;20995;-75
2021/10/21 03:56:55;;;;;;;2.70;1.27;;;;;;;13.00;74.11;97545.19;5065397;28;20543;-75
2021/10/21 03:59:22;;;;;;;6.03;1.10;;;;;;;13.04;74.54;97541.03;5086973;28;20501;-76
2021/10/21 04:01:49;;;;;;;2.10;1.33;;;;;;;12.90;74.11;97542.22;5075214;28;20567;-75
2021/10/21 04:04:16;;;;;;;3.07;1.00;;;;;;;13.05;73.93;97541.84;5085626;28;20479;-75
2021/10/21 04:06:42;;;;;;;7.00;1.80;;;;;;;13.03;71.41;97547.44;5088488;28;20493;-75
2021/10/21 04:09:09;;;;;;;2.83;1.00;;;;;;;13.00;70.82;97539.81;5065052;28;20777;-75
2021/10/21 04:11:37;;;;;;;3.50;1.10;;;;;;;13.09;70.56;97534.97;5076049;28;20480;-75
2021/10/21 04:14:04;;;;;;;2.10;0.70;;;;;;;13.00;70.75;97540.66;5086594;28;20962;-75
2021/10/21 04:16:30;;;;;;;2.30;1.07;;;;;;;12.78;71.89;97532.22;5209678;22;20510;-76
2021/10/21 04:18:57;;;;;;;10.57;3.57;;;;;;;12.74;71.99;97541.75;5045174;28;20528;-75
2021/10/21 04:21:24;;;;;;;1.57;0.80;;;;;;;12.65;71.45;97512.78;5039102;28;20584;-75
2021/10/21 04:26:26;;;;;;;5.43;1.00;;;;;;;12.65;72.28;97528.84;4392068;26;20456;-76
2021/10/21 04:28:54;;;;;;;3.00;1.20;;;;;;;12.84;71.74;97538.56;5301497;23;20588;-76
2021/10/21 04:31:20;;;;;;;2.97;0.90;;;;;;;12.75;71.63;97526.47;5054047;28;21051;-75
2021/10/21 04:36:22;;;;;;;2.20;0.83;;;;;;;12.86;70.85;97519.56;4225946;26;20445;-75
2021/10/21 04:41:18;;;;;;;4.83;0.80;;;;;;;12.88;70.47;97518.31;5071046;23;20472;-73
2021/10/21 04:43:45;;;;;;;2.83;0.93;;;;;;;13.05;70.00;97510.47;5076163;28;20484;-72
2021/10/21 04:46:13;;;;;;;1.10;0.70;;;;;;;13.11;70.42;97514.16;5083204;28;20843;-72
2021/10/21 04:48:40;;;;;;;4.83;1.10;;;;;;;12.90;70.79;97529.63;5084050;28;20488;-73
2021/10/21 04:51:07;;;;;;;5.87;0.90;;;;;;;12.79;70.29;97517.78;5072378;28;20472;-73
2021/10/21 04:53:34;;;;;;;1.83;1.03;;;;;;;12.74;70.33;97495.34;5084589;28;20428;-73
2021/10/21 04:56:00;;;;;;;2.67;0.80;;;;;;;12.82;70.48;97498.56;5101598;28;20501;-75
2021/10/21 04:58:29;;;;;;;2.07;0.80;;;;;;;12.79;70.57;97496.34;5103657;28;20451;-73
2021/10/21 05:00:55;;;;;;;6.80;1.20;;;;;;;12.97;70.32;97502.75;5101039;28;20489;-77
2021/10/21 05:03:23;;;;;;;2.83;1.00;;;;;;;12.85;70.65;97491.94;5084455;28;20974;-74
2021/10/21 05:05:50;;;;;;;3.97;1.10;;;;;;;12.78;71.14;97486.66;5095842;28;20490;-73
2021/10/21 05:08:16;;;;;;;3.87;1.20;;;;;;;12.65;72.04;97485.97;5103526;28;20962;-74
2021/10/21 05:10:43;;;;;;;2.63;0.63;;;;;;;12.67;71.59;97482.00;5103270;28;20498;-73
2021/10/21 05:13:10;;;;;;;1.90;1.00;;;;;;;12.82;71.73;97477.09;5101959;28;20852;-74
2021/10/21 05:15:37;;;;;;;2.77;1.13;;;;;;;12.63;71.79;97472.78;5089347;28;20472;-76
2021/10/21 05:18:03;;;;;;;1.90;0.97;;;;;;;12.55;71.02;97470.38;5088471;28;20896;-73
2021/10/21 05:20:32;;;;;;;5.00;1.00;;;;;;;12.81;71.26;97474.63;5082038;28;20536;-74
2021/10/21 05:22:58;;;;;;;3.17;0.97;;;;;;;12.61;71.37;97464.16;5084325;28;20483;-74
2021/10/21 05:25:25;;;;;;;2.00;0.90;;;;;;;12.70;70.84;97476.22;5080425;28;20494;-74
2021/10/21 05:27:52;;;;;;;2.53;1.00;;;;;;;12.67;70.55;97463.25;5082764;28;20512;-77
2021/10/21 05:30:18;;;;;;;2.50;1.20;;;;;;;12.65;71.11;97473.38;5083083;28;20483;-74
2021/10/21 05:32:46;;;;;;;2.03;1.03;;;;;;;12.79;71.25;97469.53;5098666;28;20450;-73
2021/10/21 05:35:13;;;;;;;2.33;1.10;;;;;;;12.72;71.40;97463.41;5089576;28;20483;-75
2021/10/21 05:37:41;;;;;;;3.20;1.10;;;;;;;12.42;72.38;97468.66;5097681;28;21109;-76
2021/10/21 05:40:08;;;;;;;1.87;1.20;;;;;;;12.39;72.62;97461.91;5096390;28;20501;-76
2021/10/21 05:42:35;;;;;;;2.73;0.80;;;;;;;12.30;73.46;97459.72;5082189;28;20500;-78
2021/10/21 05:45:02;;;;;;;2.03;0.90;;;;;;;12.46;72.46;97472.53;5089201;28;20541;-73
2021/10/21 05:47:28;;;;;;;1.93;0.87;;;;;;;12.35;72.55;97427.72;5103057;28;20482;-73
2021/10/21 05:49:55;;;;;;;2.50;0.50;;;;;;;12.30;73.68;97467.75;5102572;28;20454;-75
2021/10/21 05:52:25;;;;;;;2.23;0.90;;;;;;;12.26;75.93;97469.25;5102692;28;20491;-76
2021/10/21 05:54:53;;;;;;;2.97;0.80;;;;;;;11.93;76.95;97459.63;5093795;28;20460;-76
2021/10/21 05:57:20;;;;;;;2.17;0.77;;;;;;;12.09;77.52;97464.41;5081610;28;20547;-77
2021/10/21 05:59:46;;;;;;;2.80;1.10;;;;;;;11.91;78.50;97462.50;5083503;28;20467;-75
2021/10/21 06:02:14;;;;;;;2.10;0.90;;;;;;;11.84;78.63;97461.72;5082637;28;20868;-75
2021/10/21 06:04:41;;;;;;;3.10;1.30;;;;;;;11.93;78.21;97457.75;5088967;28;21003;-76
2021/10/21 06:07:08;;;;;;;2.40;0.90;;;;;;;11.75;78.07;97469.19;5102812;28;20524;-74
2021/10/21 06:09:35;;;;;;;2.50;1.73;;;;;;;11.95;78.36;97460.22;5203399;22;20530;-72
2021/10/21 06:12:03;;;;;;;3.83;0.90;;;;;;;11.80;78.60;97463.16;5070440;28;20481;-72
2021/10/21 06:14:31;;;;;;;4.10;1.17;;;;;;;11.84;79.03;97457.19;5072622;28;20456;-73
2021/10/21 06:16:58;;;;;;;2.53;0.63;;;;;;;11.74;79.87;97456.84;5083719;28;20475;-72
2021/10/21 06:19:25;;;;;;;13.03;1.30;;;;;;;11.61;80.09;97463.09;5087334;28;20495;-72
2021/10/21 06:21:57;;;;;;;3.13;1.30;;;;;;;11.76;81.63;97483.38;5082664;28;20495;-74
2021/10/21 06:24:24;;;;;;;3.40;1.20;;;;;;;11.69;81.86;97476.22;5082786;28;20463;-75
2021/10/21 06:26:51;;;;;;;4.13;1.20;;;;;;;11.82;81.61;97493.22;5081861;28;20482;-75
2021/10/21 06:29:19;;;;;;;2.00;0.97;;;;;;;11.61;81.21;97481.84;5102071;28;20517;-75
2021/10/21 06:31:47;;;;;;;1.60;1.00;;;;;;;11.52;82.00;97483.13;5102510;28;20486;-74
2021/10/21 06:34:14;;;;;;;2.20;1.30;;;;;;;11.60;82.40;97500.78;5102113;28;20490;-75
2021/10/21 06:36:41;;;;;;;2.00;1.20;;;;;;;11.51;82.41;97478.81;5102510;28;20492;-75
2021/10/21 06:39:07;;;;;;;1.87;1.00;;;;;;;11.60;81.93;97487.41;5102646;28;20450;-75
2021/10/21 06:41:34;;;;;;;1.77;0.80;;;;;;;11.49;82.12;97494.22;5093611;28;20944;-75
2021/10/21 06:44:01;;;;;;;2.37;1.00;;;;;;;11.61;82.28;97500.56;5103084;28;20459;-75
2021/10/21 06:46:28;;;;;;;2.90;1.30;;;;;;;11.63;82.57;97506.53;5102365;28;20501;-76
2021/10/21 06:48:58;;;;;;;2.60;1.60;;;;;;;11.61;81.91;97505.94;5102497;28;20497;-75
2021/10/21 06:53:58;;;;;;;3.57;1.20;;;;;;;11.72;81.55;97516.94;5034553;28;21020;-75
2021/10/21 06:56:25;;;;;;;4.13;1.23;;;;;;;11.69;80.96;97518.22;5024585;28;20537;-74
2021/10/21 06:58:52;;;;;;;3.70;1.70;;;;;;;11.83;80.28;97521.63;5042215;28;20512;-74
2021/10/21 07:01:19;;;;;;;2.17;1.40;;;;;;;11.77;80.41;97517.97;5034325;28;20577;-75
2021/10/21 07:03:47;;;;;;;3.40;1.13;;;;;;;12.12;79.21;97527.47;5021718;28;20467;-75
2021/10/21 07:06:13;;;;;;;1.40;1.30;;;;;;;11.93;79.10;97546.09;5039978;28;20465;-74
2021/10/21 07:08:40;;;;;;;3.03;1.40;;;;;;;12.09;78.40;97550.13;5042099;28;20816;-75
2021/10/21 07:11:08;;;;;;;2.90;1.27;;;;;;;12.08;79.36;97563.72;5041481;28;20501;-74
2021/10/21 07:13:36;;;;;;;2.07;1.40;;;;;;;12.17;78.47;97557.91;5042639;28;20434;-74
2021/10/21 07:16:03;;;;;;;2.00;1.90;;;;;;;12.03;78.20;97549.13;5041362;28;20473;-74
2021/10/21 07:18:31;;;;;;;5.87;1.93;;;;;;;12.11;78.47;97574.00;5041838;28;20453;-74
2021/10/21 07:20:59;;;;;;;2.67;1.90;;;;;;;12.09;79.13;97594.84;5041751;28;20470;-74
2021/10/21 07:23:26;;;;;;;2.40;2.00;;;;;;;12.10;79.72;97608.00;5042539;28;20453;-74
2021/10/21 07:25:53;;;;;;;2.13;1.90;;;;;;;11.93;80.34;97612.22;5041373;28;20540;-75
2021/10/21 07:28:22;;;;;;;2.33;1.77;;;;;;;11.89;81.39;97614.50;5041843;28;20489;-74
2021/10/21 07:30:50;;;;;;;2.10;1.87;;;;;;;11.97;81.02;97632.19;5041765;28;20473;-75
2021/10/21 07:33:17;;;;;;;3.07;1.83;;;;;;;11.82;82.04;97638.59;5041616;28;20517;-75
2021/10/21 07:35:43;;;;;;;4.70;2.40;;;;;;;11.95;81.80;97640.41;5041720;28;20524;-75
2021/10/21 07:40:47;;;;;;;2.07;1.90;;;;;;;11.97;82.54;97699.94;4874975;26;20872;-76
2021/10/21 07:43:14;;;;;;;3.40;1.80;;;;;;;11.97;83.01;97766.88;5337226;22;20535;-75
2021/10/21 07:45:41;;;;;;;3.40;2.00;;;;;;;11.30;83.74;97819.63;5080925;28;20468;-76
2021/10/21 07:48:08;;;;;;;2.77;0.90;;;;;;;11.01;79.61;97852.94;5081062;28;20491;-76
2021/10/21 07:50:35;;;;;;;1.23;0.50;;;;;;;10.55;77.19;97865.94;5081529;28;20556;-75
2021/10/21 07:53:03;;;;;;;2.37;0.90;;;;;;;10.58;78.83;97887.94;5063284;28;20441;-75
2021/10/21 07:58:06;;;;;;;0.80;0.40;;;;;;;10.53;78.04;97925.94;5184559;23;20495;-76
2021/10/21 08:00:33;;;;;;;1.50;0.40;;;;;;;10.54;78.37;97944.44;5051097;28;20469;-76
2021/10/21 08:03:00;;;;;;;0.57;0.43;;;;;;;10.66;78.77;97978.59;5051861;28;20459;-76
2021/10/21 08:05:27;;;;;;;0.50;0.40;;;;;;;10.68;79.28;97995.28;5063849;28;20476;-76
2021/10/21 08:07:55;;;;;;;0.87;0.50;;;;;;;10.54;80.00;98018.44;5049522;28;20526;-77
2021/10/21 08:12:56;;;;;;;2.17;1.13;;;;;;;10.76;79.24;98053.09;5107496;23;20496;-77
2021/10/21 08:15:24;;;;;;;0.97;0.60;;;;;;;10.70;78.90;98065.41;5050180;28;20509;-76
2021/10/21 08:20:44;;;;;;;0.87;0.60;;;;;;;10.74;79.97;98120.09;3704893;22;20532;-75
2021/10/21 08:23:11;;;;;;;1.20;1.10;;;;;;;10.64;80.37;98131.13;5052682;28;20476;-75
2021/10/21 08:25:39;;;;;;;1.10;0.73;;;;;;;10.64;80.68;98159.69;5059313;28;20488;-75
2021/10/21 08:28:05;;;;;;;1.27;0.60;;;;;;;10.43;80.70;98181.91;5064774;28;21007;-74
2021/10/21 08:30:36;;;;;;;0.87;0.80;;;;;;;10.44;81.16;98176.38;5061483;28;20519;-75
2021/10/21 08:35:38;;;;;;;0.80;0.50;;;;;;;10.20;81.78;98225.59;4873179;26;20463;-76
2021/10/21 08:38:05;;;;;;;0.70;0.47;;;;;;;10.36;82.23;98241.44;5044973;28;20497;-77
2021/10/21 08:40:33;;;;;;;0.90;0.70;;;;;;;10.44;81.66;98250.34;5050962;28;20469;-76
2021/10/21 08:43:02;;;;;;;0.93;0.60;;;;;;;10.53;81.46;98267.91;5064855;28;20441;-76
2021/10/21 08:45:28;;;;;;;1.33;0.60;;;;;;;10.54;81.50;98274.91;5051889;28;20469;-75
2021/10/21 08:48:01;;;;;;;1.30;0.77;;;;;;;10.79;81.40;98293.25;5044313;28;20485;-76
2021/10/21 08:50:27;;;;;;;0.70;0.50;;;;;;;10.59;81.42;98296.56;5044150;28;20477;-76
2021/10/21 08:52:54;;;;;;;2.80;0.67;;;;;;;10.81;81.14;98325.97;5044993;28;20466;-75
2021/10/21 08:55:21;;;;;;;1.33;0.60;;;;;;;10.67;81.69;98316.97;5043769;28;20484;-76
2021/10/21 08:57:47;;;;;;;2.17;0.90;;;;;;;10.81;81.06;98340.16;5044856;28;20433;-76
2021/10/21 09:00:14;;;;;;;1.30;0.77;;;;;;;10.73;81.63;98348.31;5044369;28;20445;-75
2021/10/21 09:02:48;;;;;;;1.40;0.90;;;;;;;11.04;81.01;98355.19;5044646;28;20418;-77
2021/10/21 09:05:25;;;;;;;2.03;1.17;;;;;;;10.97;81.04;98371.19;5044020;28;20457;-75
2021/10/21 09:08:10;;;;;;;1.60;1.10;;;;;;;11.09;80.60;98379.53;5044827;28;20444;-76
2021/10/21 09:13:19;;;;;;;2.90;1.30;;;;;;;11.06;80.60;98395.97;2817313;23;20777;-79
2021/10/21 09:15:49;;;;;;;4.57;1.17;;;;;;;10.99;80.68;98403.91;5052886;28;20964;-80
2021/10/21 09:18:17;;;;;;;5.10;1.90;;;;;;;10.97;80.60;98411.31;5054593;28;20471;-80
2021/10/21 09:20:45;;;;;;;2.73;1.03;;;;;;;11.04;80.20;98435.41;5063814;28;20556;-81
2021/10/21 09:23:13;;;;;;;3.53;1.67;;;;;;;11.33;79.83;98426.47;5051507;28;20506;-80
2021/10/21 09:25:40;;;;;;;5.23;1.70;;;;;;;11.45;79.23;98450.91;5043015;28;20541;-80
2021/10/21 09:28:24;;;;;;;4.13;1.83;;;;;;;11.60;77.46;98445.50;5054537;28;20489;-80
2021/10/21 09:30:57;;;;;;;3.60;2.20;;;;;;;12.44;75.72;98455.44;5094570;23;20584;-74
2021/10/21 09:33:25;;;;;;;2.50;1.33;;;;;;;12.43;74.55;98469.88;5054502;28;20950;-74
2021/10/21 09:35:59;;;;;;;5.40;1.97;;;;;;;12.50;73.71;98461.84;5049436;28;20511;-73
2021/10/21 09:40:51;;;;;;;3.33;2.00;;;;;;;12.06;74.43;98487.94;5163522;23;20489;-74
2021/10/21 09:45:53;;;;;;;6.63;1.33;;;;;;;12.37;71.62;98487.53;4849929;26;20454;-79
2021/10/21 09:50:57;;;;;;;7.20;1.60;;;;;;;13.11;71.11;98504.88;5159031;23;20494;-74
2021/10/21 09:53:28;;;;;;;5.90;1.50;;;;;;;13.37;69.40;98519.47;5059263;28;20464;-75
2021/10/21 09:56:03;;;;;;;5.80;2.03;;;;;;;13.29;69.08;98520.41;5061917;28;20473;-75
2021/10/21 09:58:32;;;;;;;4.73;1.37;;;;;;;12.73;70.35;98548.22;5058099;28;20484;-75
2021/10/21 10:01:05;;;;;;;5.07;1.20;;;;;;;12.05;72.19;98532.66;5043571;28;20480;-75
2021/10/21 10:03:33;;;;;;;4.73;1.30;;;;;;;12.21;71.78;98569.03;5043165;28;20414;-73
2021/10/21 10:06:01;;;;;;;7.80;2.10;;;;;;;11.96;73.78;98565.09;5042644;28;20473;-74
2021/10/21 10:08:29;;;;;;;6.13;1.50;;;;;;;11.57;73.23;98548.41;5043140;28;20521;-74
2021/10/21 10:10:57;;;;;;;7.10;2.00;;;;;;;11.85;71.58;98577.09;5042632;28;20477;-74
2021/10/21 10:13:25;;;;;;;4.70;2.10;;;;;;;12.17;70.76;98583.00;5043410;28;20458;-74
2021/10/21 10:21:10;;;;;;;6.80;1.93;;;;;;;12.88;67.45;98614.31;4347949;26;20480;-74
2021/10/21 10:23:40;;;;;;;5.80;1.90;;;;;;;12.78;67.71;98623.53;5025793;28;20457;-74
2021/10/21 10:26:07;;;;;;;11.43;1.90;;;;;;;13.13;67.09;98602.09;5042650;28;20477;-75
2021/10/21 10:28:53;;;;;;;4.70;2.30;;;;;;;13.90;64.51;98613.59;5034118;28;20482;-75
2021/10/21 10:31:38;;;;;;;10.27;1.90;;;;;;;13.20;64.69;98623.59;5033504;28;20501;-75
2021/10/21 10:34:05;;;;;;;9.03;1.97;;;;;;;13.83;63.90;98615.44;5041786;28;20465;-75
2021/10/21 10:36:35;;;;;;;10.07;1.97;;;;;;;13.57;63.14;98618.84;5042224;28;20496;-74
2021/10/21 10:39:03;;;;;;;8.67;2.30;;;;;;;14.02;62.26;98638.03;5041939;28;20508;-74
2021/10/21 10:41:53;;;;;;;6.50;2.03;;;;;;;14.24;61.15;98646.78;5041764;28;21028;-75
2021/10/21 10:44:53;;;;;;;6.73;2.60;;;;;;;13.09;62.36;98649.16;5042880;28;20434;-75
2021/10/21 10:50:53;;;;;;;9.77;1.90;;;;;;;13.04;64.46;98648.03;3943347;23;20884;-77
2021/10/21 10:53:48;;;;;;;6.80;1.90;;;;;;;13.07;62.06;98677.19;5050646;28;20456;-78
2021/10/21 10:59:16;;;;;;;6.00;1.77;;;;;;;13.69;60.16;98665.59;3894070;23;20560;-74
2021/10/21 11:01:43;;;;;;;4.73;1.80;;;;;;;13.19;61.25;98659.50;5045857;28;20577;-74
2021/10/21 11:04:10;;;;;;;5.10;1.37;;;;;;;13.08;61.92;98668.94;5064460;28;20503;-73
2021/10/21 11:14:16;;;;;;;7.30;2.30;;;;;;;12.04;70.19;98705.06;5340074;23;20517;-78
2021/10/21 11:19:51;;;;;;;7.97;2.43;;;;;;;11.47;71.78;98698.56;5037781;28;20531;-75
2021/10/21 11:22:40;;;;;;;4.00;1.33;;;;;;;11.50;72.21;98730.31;5031734;28;20500;-74
2021/10/21 11:28:00;;;;;;;3.27;1.10;;;;;;;11.22;69.91;98723.94;5235753;23;20485;-76
2021/10/21 11:43:48;;;;;;;7.67;1.50;;;;;;;10.95;74.15;98771.63;5374657;23;20488;-77
2021/10/21 11:54:07;;;;;;;2.17;1.63;;;;;;;10.70;77.87;98766.47;5300584;23;20503;-75
2021/10/21 11:59:11;;;;;;;4.57;2.13;;;;;;;10.70;77.53;98761.13;4204056;22;20531;-74
2021/10/21 12:01:38;;;;;;;3.80;1.67;;;;;;;10.49;77.07;98756.41;5156802;23;20520;-75
2021/10/21 12:04:06;;;;;;;7.67;2.10;;;;;;;10.64;77.31;98759.16;5038812;28;20477;-75
2021/10/21 12:12:08;;;;;;;2.87;2.30;;;;;;;10.60;77.03;98746.31;3371520;26;20501;-77
2021/10/21 12:17:12;;;;;;;5.00;2.17;;;;;;;10.51;76.78;98737.53;4384741;23;20479;-80
2021/10/21 12:19:39;;;;;;;4.60;2.57;;;;;;;10.79;76.48;98737.81;5061225;28;20983;-81
2021/10/21 12:22:14;;;;;;;6.43;2.60;;;;;;;10.79;76.37;98729.81;5196978;23;20494;-82
2021/10/21 12:24:42;;;;;;;3.37;1.97;;;;;;;10.81;77.12;98745.66;5066968;28;20510;-83
2021/10/21 12:27:09;;;;;;;5.87;2.63;;;;;;;11.06;75.76;98731.09;5064525;28;20491;-82
2021/10/21 12:29:42;;;;;;;7.70;2.57;;;;;;;10.97;74.88;98742.03;5078561;28;20854;-83
2021/10/21 12:32:11;;;;;;;1.97;1.73;;;;;;;11.24;74.03;98730.75;5062721;28;20487;-83
2021/10/21 12:34:38;;;;;;;4.00;2.43;;;;;;;11.42;73.64;98738.44;5241268;23;20493;-76
2021/10/21 12:37:07;;;;;;;5.30;2.20;;;;;;;11.15;72.48;98755.09;5038375;28;20480;-76
2021/10/21 12:39:35;;;;;;;4.57;2.20;;;;;;;11.11;73.78;98738.56;5048691;28;20489;-77
2021/10/21 12:42:03;;;;;;;5.60;2.20;;;;;;;11.26;72.96;98738.59;5045820;28;20535;-77
2021/10/21 12:44:31;;;;;;;4.63;2.40;;;;;;;11.51;72.67;98739.19;5054411;28;20529;-77
2021/10/21 12:47:15;;;;;;;3.47;1.97;;;;;;;11.73;71.89;98737.41;5043633;28;20504;-78
2021/10/21 12:55:11;;;;;;;2.57;1.30;;;;;;;11.63;70.89;98753.78;2133425;23;20489;-85
2021/10/21 12:57:42;;;;;;;4.77;1.73;;;;;;;11.34;71.48;98741.19;5055781;28;20460;-85
2021/10/21 13:08:00;;;;;;;3.13;1.20;;;;;;;11.49;68.83;98755.41;5379638;22;20489;-79
2021/10/21 13:10:28;;;;;;;8.37;1.73;;;;;;;11.42;68.97;98759.00;5204887;22;21027;-85
2021/10/21 13:15:23;;;;;;;4.70;1.63;;;;;;;11.55;68.58;98753.84;5127608;22;20500;-80
2021/10/21 13:17:49;;;;;;;2.00;1.77;;;;;;;11.50;67.81;98746.34;5062345;28;20440;-80
2021/10/21 13:20:17;;;;;;;4.50;1.50;;;;;;;11.54;67.62;98748.69;5063148;28;20457;-79
2021/10/21 13:25:18;;;;;;;2.20;1.30;;;;;;;11.62;67.89;98780.72;3380546;23;20488;-73
2021/10/21 13:27:47;;;;;;;5.03;1.40;;;;;;;11.68;67.49;98778.13;5055978;28;20468;-73
2021/10/21 13:30:13;;;;;;;2.83;1.60;;;;;;;11.64;68.04;98803.59;5060067;28;20922;-73
2021/10/21 13:32:40;;;;;;;3.63;1.40;;;;;;;11.93;68.55;98810.03;5061328;28;20495;-74
2021/10/21 13:35:07;;;;;;;4.20;1.33;;;;;;;11.89;69.60;98867.63;5061178;28;20441;-73
2021/10/21 13:37:35;;;;;;;2.80;0.97;;;;;;;10.85;70.96;98861.91;5060266;28;20660;-74
2021/10/21 13:40:01;;;;;;;1.43;0.90;;;;;;;10.45;73.53;98877.16;5060730;28;20460;-73
2021/10/21 13:42:28;;;;;;;1.53;1.10;;;;;;;10.04;75.30;98909.34;5105392;23;20914;-75
2021/10/21 13:44:57;;;;;;;3.03;0.80;;;;;;;9.65;76.89;98926.06;5059751;28;20832;-75
2021/10/21 15:12:49;;;;;;;2.20;0.90;;;;;;;9.17;76.32;99132.00;5627029;23;20555;-77